Terminal Aerodrome Forecast
Issued by NWS

Home | Current Version | Previous Version | Graphics & Text | Print | Product List | Glossary On
Versions: 1 2 3 4 5 6 7 8 9 10 11 12 13 14 15 16 17
000
FTUS42 KMHX 251128
TAFISO
TAF
KISO 251128Z 2512/2612 23005KT P6SM VCSH SCT050 OVC100
     FM252000 15006KT 5SM -RA BR SCT007 OVC015
     FM260000 VRB04KT 3SM -RA BR BKN007 OVC015
     FM260300 28003KT 4SM BR VCSH OVC004
      AMD LTD TO CLD VIS AND WIND=

USA.gov is the U.S. government's official web portal to all federal, state and local government web resources and services.